createdAt,value
2023-04-02T00:01:20.245Z,101101.41
2023-04-02T00:04:43.297Z,101101.25
2023-04-02T00:08:18.698Z,101109.16
2023-04-02T00:11:43.369Z,101114.25
2023-04-02T00:15:05.371Z,101105.75
2023-04-02T00:18:28.357Z,101119.81
2023-04-02T00:21:53.026Z,101118.88
2023-04-02T00:25:15.147Z,101120.31
2023-04-02T00:28:36.679Z,101136.72
2023-04-02T00:32:00.960Z,101126.34
2023-04-02T00:35:27.559Z,101136.56
2023-04-02T00:38:50.904Z,101141.13
2023-04-02T00:42:14.271Z,101146.81
2023-04-02T00:45:38.660Z,101148.09
2023-04-02T00:49:08.053Z,101155.16
2023-04-02T00:52:33.155Z,101151.97
2023-04-02T00:55:58.590Z,101168.34
2023-04-02T00:59:26.305Z,101174.56
2023-04-02T01:03:19.935Z,101174.41
2023-04-02T01:06:43.961Z,101173.56
2023-04-02T01:10:21.707Z,101183.41
2023-04-02T01:13:58.782Z,101194.09
2023-04-02T01:17:36.318Z,101198.22
2023-04-02T01:21:26.099Z,101196.97
2023-04-02T01:24:48.535Z,101202.16
2023-04-02T01:28:21.121Z,101215.09
2023-04-02T01:31:46.823Z,101203.00
2023-04-02T01:35:10.481Z,101206.75
2023-04-02T01:38:39.438Z,101217.13
2023-04-02T01:42:10.346Z,101225.81
2023-04-02T01:45:32.433Z,101231.63
2023-04-02T01:48:56.580Z,101235.88
2023-04-02T01:52:27.339Z,101239.44
2023-04-02T01:55:52.496Z,101245.44
2023-04-02T01:59:16.459Z,101254.34
2023-04-02T02:02:39.549Z,101264.84
2023-04-02T02:06:03.632Z,101261.31
2023-04-02T02:09:28.556Z,101273.34
2023-04-02T02:12:50.793Z,101271.41
2023-04-02T02:16:18.940Z,101274.19
2023-04-02T02:19:45.088Z,101286.53
2023-04-02T02:23:09.102Z,101289.03
2023-04-02T02:26:34.020Z,101296.84
2023-04-02T02:30:00.498Z,101299.41
2023-04-02T02:33:26.193Z,101303.91
2023-04-02T02:36:55.917Z,101310.97
2023-04-02T02:40:26.288Z,101314.38
2023-04-02T02:43:54.297Z,101327.50
2023-04-02T02:47:17.982Z,101324.03
2023-04-02T02:50:41.240Z,101333.94
2023-04-02T02:54:07.735Z,101339.47
2023-04-02T02:57:36.089Z,101342.94
2023-04-02T03:00:57.983Z,101343.88
2023-04-02T03:04:22.925Z,101356.13
2023-04-02T03:07:47.312Z,101359.78
2023-04-02T03:11:15.321Z,101351.63
2023-04-02T03:14:45.340Z,101366.34
2023-04-02T03:18:15.339Z,101371.63
2023-04-02T03:21:46.075Z,101384.00
2023-04-02T03:25:23.711Z,101384.59
2023-04-02T03:28:56.704Z,101397.59
2023-04-02T03:32:24.430Z,101389.81
2023-04-02T03:35:51.051Z,101398.72
2023-04-02T03:39:18.276Z,101409.34
2023-04-02T03:42:49.049Z,101411.09
2023-04-02T03:46:25.319Z,101413.06
2023-04-02T03:49:57.113Z,101419.22
2023-04-02T03:53:23.724Z,101429.66
2023-04-02T03:56:47.730Z,101433.91
2023-04-02T04:00:21.796Z,101438.09
2023-04-02T04:03:52.022Z,101441.72
2023-04-02T04:07:22.763Z,101449.63
2023-04-02T04:10:45.610Z,101451.28
2023-04-02T04:14:12.234Z,101455.13
2023-04-02T04:17:38.680Z,101460.84
2023-04-02T04:21:04.019Z,101472.00
2023-04-02T04:24:39.303Z,101473.22
2023-04-02T04:28:10.614Z,101475.06
2023-04-02T04:31:39.916Z,101482.69
2023-04-02T04:35:08.162Z,101491.53
2023-04-02T04:38:33.911Z,101508.13
2023-04-02T04:42:01.411Z,101500.75
2023-04-02T04:45:42.005Z,101501.34
2023-04-02T04:49:09.305Z,101510.66
2023-04-02T04:52:37.638Z,101515.72
2023-04-02T04:56:16.054Z,101528.88
2023-04-02T04:59:46.916Z,101531.34
2023-04-02T05:03:18.263Z,101539.81
2023-04-02T05:06:44.208Z,101538.34
2023-04-02T05:10:14.718Z,101545.25
2023-04-02T05:13:41.946Z,101557.31
2023-04-02T05:17:11.566Z,101565.91
2023-04-02T05:20:38.748Z,101573.81
2023-04-02T05:24:24.330Z,101573.81
2023-04-02T05:27:53.664Z,101585.06
2023-04-02T05:31:19.962Z,101588.53
2023-04-02T05:34:49.596Z,101588.47
2023-04-02T05:38:21.811Z,101601.09
2023-04-02T05:41:45.984Z,101609.06
2023-04-02T05:45:26.020Z,101607.19
2023-04-02T05:48:53.969Z,101610.56
2023-04-02T05:52:23.148Z,101616.47
2023-04-02T05:55:54.309Z,101625.03
2023-04-02T05:59:21.641Z,101630.41
2023-04-02T06:02:54.836Z,101625.91
2023-04-02T06:06:24.931Z,101643.38
2023-04-02T06:09:52.074Z,101652.34
2023-04-02T06:13:18.997Z,101653.06
2023-04-02T06:16:41.598Z,101656.50
2023-04-02T06:20:07.642Z,101665.16
2023-04-02T06:23:37.090Z,101662.50
2023-04-02T06:27:07.011Z,101677.31
2023-04-02T06:30:33.022Z,101676.25
2023-04-02T06:33:56.496Z,101686.75
2023-04-02T06:37:27.639Z,101687.59
2023-04-02T06:41:04.211Z,101691.25
2023-04-02T06:44:38.043Z,101712.69
2023-04-02T06:48:20.804Z,101715.53
2023-04-02T06:51:50.494Z,101717.34
2023-04-02T06:55:29.932Z,101722.47
2023-04-02T06:58:51.948Z,101726.81
2023-04-02T07:02:28.345Z,101738.25
2023-04-02T07:05:50.779Z,101742.66
2023-04-02T07:09:13.863Z,101750.63
2023-04-02T07:12:39.881Z,101751.50
2023-04-02T07:16:02.131Z,101759.09
2023-04-02T07:19:26.048Z,101765.94
2023-04-02T07:22:51.584Z,101763.06
2023-04-02T07:26:16.573Z,101778.88
2023-04-02T07:29:42.591Z,101789.03
2023-04-02T07:33:04.472Z,101804.00
2023-04-02T07:36:29.895Z,101801.38
2023-04-02T07:39:51.364Z,101797.03
2023-04-02T07:43:13.701Z,101803.88
2023-04-02T07:46:35.544Z,101806.59
2023-04-02T07:49:57.351Z,101825.25
2023-04-02T07:53:29.906Z,101817.47
2023-04-02T07:56:51.882Z,101820.13
2023-04-02T08:00:14.533Z,101853.50
2023-04-02T08:03:36.489Z,101842.94
2023-04-02T08:06:58.158Z,101854.41
2023-04-02T08:10:21.447Z,101854.41
2023-04-02T08:13:43.227Z,101848.28
2023-04-02T08:17:05.497Z,101848.22
2023-04-02T08:20:27.414Z,101854.28
2023-04-02T08:23:49.161Z,101869.03
2023-04-02T08:27:14.864Z,101859.25
2023-04-02T08:30:37.278Z,101864.41
2023-04-02T08:33:58.841Z,101864.84
2023-04-02T08:37:20.652Z,101877.66
2023-04-02T08:40:44.896Z,101885.75
2023-04-02T08:44:32.278Z,101887.19
2023-04-02T08:47:57.496Z,101878.28
2023-04-02T08:51:24.193Z,101888.19
2023-04-02T08:54:45.983Z,101896.06
2023-04-02T08:58:18.783Z,101885.41
2023-04-02T09:01:51.799Z,101892.94
2023-04-02T09:05:19.895Z,101895.09
2023-04-02T09:08:45.051Z,101904.22
2023-04-02T09:12:15.477Z,101911.97
2023-04-02T09:15:37.764Z,101922.19
2023-04-02T09:19:02.102Z,101926.47
2023-04-02T09:22:26.148Z,101928.25
2023-04-02T09:26:02.911Z,101915.84
2023-04-02T09:29:54.624Z,101944.13
2023-04-02T09:33:16.805Z,101938.19
2023-04-02T09:36:40.783Z,101937.25
2023-04-02T09:40:24.148Z,101946.03
2023-04-02T09:43:46.404Z,101951.81
2023-04-02T09:47:25.672Z,101958.78
2023-04-02T09:50:47.209Z,101955.19
2023-04-02T09:54:16.584Z,101963.91
2023-04-02T09:57:38.799Z,101971.84
2023-04-02T10:01:01.394Z,101975.28
2023-04-02T10:04:37.525Z,101983.00
2023-04-02T10:08:08.710Z,101987.22
2023-04-02T10:11:46.441Z,101986.34
2023-04-02T10:15:17.057Z,102006.47
2023-04-02T10:18:44.861Z,101994.91
2023-04-02T10:22:13.305Z,102014.00
2023-04-02T10:25:46.022Z,102004.06
2023-04-02T10:29:25.943Z,102006.56
2023-04-02T10:32:52.220Z,102015.22
2023-04-02T10:36:27.207Z,102016.88
2023-04-02T10:39:55.174Z,102013.44
2023-04-02T10:43:44.937Z,102013.94
2023-04-02T10:47:23.426Z,102008.03
2023-04-02T10:50:50.911Z,101996.97
2023-04-02T10:54:27.997Z,102022.13
2023-04-02T10:57:49.913Z,102026.56
2023-04-02T11:01:18.048Z,102028.38
2023-04-02T11:04:46.108Z,102037.09
2023-04-02T11:08:17.713Z,102041.31
2023-04-02T11:11:42.591Z,102030.81
2023-04-02T11:15:05.545Z,102039.44
2023-04-02T11:18:29.917Z,102043.44
2023-04-02T11:22:00.020Z,102042.34
2023-04-02T11:25:24.557Z,102039.25
2023-04-02T11:28:46.922Z,102051.19
2023-04-02T11:32:29.128Z,102061.06
2023-04-02T11:35:50.759Z,102062.66
2023-04-02T11:39:17.413Z,102064.44
2023-04-02T11:42:40.475Z,102061.41
2023-04-02T11:46:04.133Z,102063.44
2023-04-02T11:49:57.577Z,102072.59
2023-04-02T11:53:23.224Z,102093.94
2023-04-02T11:56:55.808Z,102092.22
2023-04-02T12:00:29.102Z,102095.56
2023-04-02T12:04:06.185Z,102092.84
2023-04-02T12:07:55.211Z,102102.81
2023-04-02T12:11:17.042Z,102104.38
2023-04-02T12:14:48.257Z,102112.19
2023-04-02T12:18:17.381Z,102121.47
2023-04-02T12:21:39.179Z,102106.72
2023-04-02T12:25:06.406Z,102114.38
2023-04-02T12:28:30.034Z,102109.44
2023-04-02T12:31:54.195Z,102126.91
2023-04-02T12:35:29.592Z,102136.66
2023-04-02T12:38:52.980Z,102124.59
2023-04-02T12:42:28.111Z,102137.47
2023-04-02T12:45:53.430Z,102129.03
2023-04-02T12:49:26.724Z,102141.91
2023-04-02T12:52:51.268Z,102150.56
2023-04-02T12:56:21.421Z,102156.75
2023-04-02T12:59:44.717Z,102145.34
2023-04-02T13:03:18.746Z,102152.91
2023-04-02T13:06:48.729Z,102151.81
2023-04-02T13:10:25.699Z,102155.41
2023-04-02T13:13:48.619Z,102165.56
2023-04-02T13:17:37.572Z,102180.69
2023-04-02T13:21:00.667Z,102163.91
2023-04-02T13:24:25.241Z,102161.66
2023-04-02T13:27:46.971Z,102178.03
2023-04-02T13:31:13.738Z,102181.28
2023-04-02T13:34:35.450Z,102197.63
2023-04-02T13:37:57.218Z,102190.03
2023-04-02T13:41:23.967Z,102191.19
2023-04-02T13:44:46.483Z,102195.88
2023-04-02T13:48:14.470Z,102209.38
2023-04-02T13:51:38.478Z,102197.94
2023-04-02T13:55:01.260Z,102207.59
2023-04-02T13:58:24.236Z,102201.38
2023-04-02T14:01:47.462Z,102211.09
2023-04-02T14:05:18.782Z,102211.97
2023-04-02T14:08:54.303Z,102218.84
2023-04-02T14:12:24.913Z,102230.50
2023-04-02T14:16:04.112Z,102231.91
2023-04-02T14:19:41.543Z,102227.72
2023-04-02T14:23:33.246Z,102240.94
2023-04-02T14:27:11.606Z,102242.19
2023-04-02T14:30:41.609Z,102238.53
2023-04-02T14:34:16.706Z,102253.38
2023-04-02T14:37:43.754Z,102239.69
2023-04-02T14:41:10.836Z,102245.84
2023-04-02T14:44:39.589Z,102258.44
2023-04-02T14:48:06.536Z,102254.81
2023-04-02T14:51:35.814Z,102267.53
2023-04-02T14:55:02.320Z,102268.53
2023-04-02T14:58:27.673Z,102265.31
2023-04-02T15:01:51.374Z,102271.78
2023-04-02T15:05:18.400Z,102266.25
2023-04-02T15:08:58.562Z,102291.13
2023-04-02T15:12:31.686Z,102277.72
2023-04-02T15:15:57.171Z,102289.72
2023-04-02T15:19:20.312Z,102280.06
2023-04-02T15:22:51.846Z,102275.69
2023-04-02T15:26:21.753Z,102282.06
2023-04-02T15:29:50.029Z,102298.06
2023-04-02T15:33:35.460Z,102298.22
2023-04-02T15:37:06.582Z,102303.38
2023-04-02T15:40:47.671Z,102314.41
2023-04-02T15:44:15.524Z,102304.16
2023-04-02T15:47:48.697Z,102305.03
2023-04-02T15:51:30.858Z,102335.06
2023-04-02T15:55:03.321Z,102326.59
2023-04-02T15:58:36.005Z,102335.09
2023-04-02T16:02:16.176Z,102329.91
2023-04-02T16:05:45.327Z,102327.66
2023-04-02T16:09:18.995Z,102333.56
2023-04-02T16:12:41.719Z,102339.28
2023-04-02T16:16:06.945Z,102341.59
2023-04-02T16:19:35.666Z,102347.53
2023-04-02T16:23:06.505Z,102369.94
2023-04-02T16:26:37.866Z,102363.16
2023-04-02T16:30:09.610Z,102370.03
2023-04-02T16:33:45.334Z,102379.84
2023-04-02T16:37:14.938Z,102381.88
2023-04-02T16:40:43.262Z,102390.97
2023-04-02T16:44:16.258Z,102404.50
2023-04-02T16:48:01.548Z,102399.16
2023-04-02T16:51:30.131Z,102397.44
2023-04-02T16:55:06.068Z,102415.16
2023-04-02T16:58:43.516Z,102419.78
2023-04-02T17:02:18.540Z,102421.81
2023-04-02T17:05:50.649Z,102421.03
2023-04-02T17:09:32.042Z,102439.63
2023-04-02T17:13:13.007Z,102430.59
2023-04-02T17:16:42.621Z,102440.28
2023-04-02T17:20:04.164Z,102449.13
2023-04-02T17:23:27.107Z,102446.16
2023-04-02T17:26:52.641Z,102461.25
2023-04-02T17:30:18.725Z,102468.91
2023-04-02T17:33:40.315Z,102472.50
2023-04-02T17:37:13.192Z,102476.59
2023-04-02T17:40:41.615Z,102483.06
2023-04-02T17:44:16.377Z,102485.97
2023-04-02T17:47:51.476Z,102485.56
2023-04-02T17:51:21.396Z,102490.47
2023-04-02T17:54:52.233Z,102500.56
2023-04-02T17:58:32.169Z,102511.53
2023-04-02T18:02:03.181Z,102506.53
2023-04-02T18:05:32.106Z,102512.03
2023-04-02T18:09:05.317Z,102525.56
2023-04-02T18:12:41.396Z,102529.25
2023-04-02T18:16:14.394Z,102533.03
2023-04-02T18:19:45.681Z,102545.69
2023-04-02T18:23:20.420Z,102553.97
2023-04-02T18:26:53.342Z,102553.47
2023-04-02T18:30:23.182Z,102558.03
2023-04-02T18:34:02.615Z,102569.63
2023-04-02T18:37:33.121Z,102584.66
2023-04-02T18:41:07.589Z,102591.03
2023-04-02T18:44:48.874Z,102583.50
2023-04-02T18:48:28.991Z,102595.25
2023-04-02T18:51:55.678Z,102597.28
2023-04-02T18:55:21.993Z,102608.66
2023-04-02T18:58:53.135Z,102609.50
2023-04-02T19:02:30.535Z,102618.31
2023-04-02T19:05:56.549Z,102622.97
2023-04-02T19:09:23.241Z,102631.06
2023-04-02T19:12:45.413Z,102638.94
2023-04-02T19:16:31.544Z,102646.19
2023-04-02T19:20:04.299Z,102657.81
2023-04-02T19:23:40.830Z,102660.75
2023-04-02T19:27:09.102Z,102666.06
2023-04-02T19:30:38.577Z,102680.16
2023-04-02T19:34:11.068Z,102674.84
2023-04-02T19:37:37.840Z,102685.56
2023-04-02T19:41:10.454Z,102697.88
2023-04-02T19:44:32.084Z,102694.25
2023-04-02T19:47:54.731Z,102697.66
2023-04-02T19:51:17.792Z,102699.41
2023-04-02T19:54:39.708Z,102713.41
2023-04-02T19:58:17.348Z,102711.78
2023-04-02T20:01:41.274Z,102718.22
2023-04-02T20:05:03.350Z,102729.88
2023-04-02T20:08:27.113Z,102730.22
2023-04-02T20:11:48.971Z,102728.81
2023-04-02T20:15:11.565Z,102734.16
2023-04-02T20:18:33.467Z,102737.78
2023-04-02T20:21:56.292Z,102746.53
2023-04-02T20:25:19.270Z,102751.88
2023-04-02T20:28:41.431Z,102750.13
2023-04-02T20:32:03.102Z,102751.75
2023-04-02T20:35:25.606Z,102751.72
2023-04-02T20:38:47.345Z,102766.75
2023-04-02T20:42:10.883Z,102769.41
2023-04-02T20:45:32.876Z,102776.34
2023-04-02T20:48:54.440Z,102773.78
2023-04-02T20:52:16.199Z,102781.91
2023-04-02T20:55:37.608Z,102779.44
2023-04-02T20:59:01.076Z,102790.09
2023-04-02T21:02:22.978Z,102792.06
2023-04-02T21:05:45.541Z,102797.41
2023-04-02T21:09:09.010Z,102795.66
2023-04-02T21:12:31.646Z,102801.84
2023-04-02T21:15:54.808Z,102798.44
2023-04-02T21:19:16.380Z,102812.50
2023-04-02T21:22:38.181Z,102818.59
2023-04-02T21:26:01.706Z,102814.13
2023-04-02T21:29:23.241Z,102824.50
2023-04-02T21:32:46.672Z,102827.28
2023-04-02T21:36:09.924Z,102818.69
2023-04-02T21:39:31.781Z,102821.31
2023-04-02T21:42:55.372Z,102832.84
2023-04-02T21:46:18.239Z,102823.25
2023-04-02T21:49:41.370Z,102826.09
2023-04-02T21:53:03.930Z,102832.50
2023-04-02T21:56:27.871Z,102832.56
2023-04-02T21:59:49.460Z,102836.88
2023-04-02T22:03:13.666Z,102837.75
2023-04-02T22:06:43.109Z,102835.97
2023-04-02T22:10:04.910Z,102837.72
2023-04-02T22:13:26.811Z,102839.44
2023-04-02T22:16:48.695Z,102849.09
2023-04-02T22:20:11.351Z,102849.91
2023-04-02T22:23:35.650Z,102849.91
2023-04-02T22:26:57.467Z,102855.19
2023-04-02T22:30:19.302Z,102866.66
2023-04-02T22:33:41.278Z,102867.50
2023-04-02T22:37:02.962Z,102871.84
2023-04-02T22:40:26.376Z,102874.50
2023-04-02T22:43:48.033Z,102878.94
2023-04-02T22:47:09.453Z,102879.78
2023-04-02T22:50:31.284Z,102876.28
2023-04-02T22:53:54.363Z,102878.91
2023-04-02T22:57:17.297Z,102888.69
2023-04-02T23:00:39.631Z,102883.41
2023-04-02T23:04:01.161Z,102886.88
2023-04-02T23:07:23.074Z,102883.47
2023-04-02T23:10:44.600Z,102894.84
2023-04-02T23:14:07.306Z,102904.41
2023-04-02T23:17:29.814Z,102898.31
2023-04-02T23:20:51.443Z,102897.47
2023-04-02T23:24:13.396Z,102906.31
2023-04-02T23:27:35.137Z,102898.44
2023-04-02T23:30:58.298Z,102910.69
2023-04-02T23:34:19.765Z,102901.13
2023-04-02T23:37:42.085Z,102916.97
2023-04-02T23:41:03.793Z,102912.59
2023-04-02T23:44:25.711Z,102911.81
2023-04-02T23:47:48.880Z,102914.50
2023-04-02T23:51:10.681Z,102912.78
2023-04-02T23:54:32.496Z,102911.88
2023-04-02T23:57:54.322Z,102912.88
